Time;durP1;ratioP1;P1;durP2;ratioP2;P2;SDS_P1;SDS_P2;PMS_P1;PMS_P2;Temp;Humidity;BMP_temperature;BMP_pressure;BME280_temperature;BME280_humidity;BME280_pressure;Samples;Min_cycle;Max_cycle;Signal;HPM_P1;HPM_P2
2023/04/07 00:02:21;;;;;;;23.67;16.33;;;;;;;6.89;100.00;99058.72;5086828;28;20223;-79
2023/04/07 00:04:49;;;;;;;26.00;17.17;;;;;;;6.87;100.00;99059.75;5092497;28;20225;-79
2023/04/07 00:07:18;;;;;;;28.17;17.33;;;;;;;6.92;100.00;99054.22;5088722;28;20200;-78
2023/04/07 00:09:46;;;;;;;28.70;18.30;;;;;;;6.91;100.00;99060.44;5088622;28;20241;-78
2023/04/07 00:12:15;;;;;;;30.53;19.57;;;;;;;6.89;100.00;99056.09;5089994;28;20215;-78
2023/04/07 00:14:43;;;;;;;27.27;19.10;;;;;;;6.95;100.00;99062.84;5088076;28;20276;-78
2023/04/07 00:17:11;;;;;;;26.83;18.43;;;;;;;6.94;100.00;99053.22;5088979;28;20264;-78
2023/04/07 00:19:42;;;;;;;28.93;18.50;;;;;;;6.94;100.00;99052.34;5084644;28;20195;-78
2023/04/07 00:22:11;;;;;;;27.13;19.40;;;;;;;6.85;100.00;99049.28;5088962;28;20240;-78
2023/04/07 00:24:39;;;;;;;27.67;20.27;;;;;;;6.80;100.00;99047.81;5090125;28;20241;-78
2023/04/07 00:27:08;;;;;;;29.20;19.93;;;;;;;6.94;100.00;99041.84;5090278;28;20195;-78
2023/04/07 00:29:36;;;;;;;29.50;19.77;;;;;;;6.93;100.00;99042.75;5093347;28;20192;-78
2023/04/07 00:32:04;;;;;;;31.90;21.57;;;;;;;6.89;100.00;99042.06;5041913;28;20237;-78
2023/04/07 00:34:33;;;;;;;29.63;20.53;;;;;;;6.93;100.00;99033.09;5089075;28;20214;-78
2023/04/07 00:37:05;;;;;;;31.00;21.83;;;;;;;6.83;100.00;99040.59;5087245;28;20199;-78
2023/04/07 00:39:33;;;;;;;29.67;20.30;;;;;;;6.89;100.00;99035.03;5087864;28;20196;-78
2023/04/07 00:42:03;;;;;;;29.53;21.63;;;;;;;6.88;100.00;99029.84;5082916;28;20195;-78
2023/04/07 00:44:31;;;;;;;29.40;19.97;;;;;;;6.92;100.00;99026.13;5088301;28;20284;-78
2023/04/07 00:47:00;;;;;;;28.57;19.37;;;;;;;6.88;100.00;99029.84;5088679;28;20195;-78
2023/04/07 00:49:28;;;;;;;33.03;20.63;;;;;;;6.89;100.00;99023.66;5088622;28;20200;-79
2023/04/07 00:51:58;;;;;;;31.00;20.47;;;;;;;6.92;100.00;99022.63;5092584;28;20245;-78
2023/04/07 00:54:30;;;;;;;29.23;19.60;;;;;;;6.87;100.00;99017.63;5093218;28;20199;-78
2023/04/07 00:56:58;;;;;;;27.90;19.37;;;;;;;6.87;100.00;99015.84;5090341;28;20202;-78
2023/04/07 00:59:28;;;;;;;24.83;17.87;;;;;;;6.89;100.00;99016.59;5084277;28;20199;-78
2023/04/07 01:02:03;;;;;;;30.37;18.97;;;;;;;6.92;100.00;99012.94;5089477;28;20216;-79
2023/04/07 01:04:34;;;;;;;29.53;18.63;;;;;;;6.97;100.00;99013.59;5084532;28;20206;-78
2023/04/07 01:07:07;;;;;;;31.10;20.07;;;;;;;6.93;100.00;99003.28;5089777;28;20241;-78
2023/04/07 01:09:48;;;;;;;30.23;19.03;;;;;;;6.91;100.00;98995.47;5092634;28;20225;-78
2023/04/07 01:12:26;;;;;;;29.67;19.00;;;;;;;6.77;100.00;98995.34;5084961;28;20727;-78
2023/04/07 01:15:00;;;;;;;30.20;19.67;;;;;;;6.81;100.00;99002.97;5089777;28;20638;-79
2023/04/07 01:17:29;;;;;;;32.70;20.07;;;;;;;6.80;100.00;98996.00;5087044;28;20188;-79
2023/04/07 01:20:02;;;;;;;27.57;19.27;;;;;;;6.82;100.00;98990.66;5085620;28;20204;-79
2023/04/07 01:22:40;;;;;;;29.50;19.17;;;;;;;6.81;100.00;98996.88;5092369;28;20195;-79
2023/04/07 01:25:29;;;;;;;28.83;18.43;;;;;;;6.87;100.00;98993.94;5089909;28;20214;-79
2023/04/07 01:28:24;;;;;;;29.17;18.57;;;;;;;6.96;100.00;99000.50;5092333;28;20251;-79
2023/04/07 01:30:56;;;;;;;27.30;17.73;;;;;;;6.91;100.00;98992.81;5089166;28;20192;-79
2023/04/07 01:33:27;;;;;;;27.97;18.87;;;;;;;6.93;100.00;98993.59;5087003;28;20211;-79
2023/04/07 01:35:59;;;;;;;26.97;18.40;;;;;;;6.75;100.00;98990.13;5085727;28;20249;-79
2023/04/07 01:38:29;;;;;;;29.20;18.93;;;;;;;6.88;100.00;98993.00;5089817;28;20401;-79
2023/04/07 01:40:58;;;;;;;24.97;16.93;;;;;;;6.79;100.00;98996.94;5091791;28;20192;-79
2023/04/07 01:43:28;;;;;;;24.97;16.90;;;;;;;6.82;100.00;98999.41;5096057;28;20196;-79
2023/04/07 01:45:59;;;;;;;27.07;18.07;;;;;;;6.79;100.00;98994.31;5093366;28;20651;-79
2023/04/07 01:48:28;;;;;;;26.30;17.60;;;;;;;6.83;100.00;98993.22;5088095;28;20195;-79
2023/04/07 01:50:58;;;;;;;28.53;17.20;;;;;;;6.88;100.00;98985.94;5085373;28;20249;-79
2023/04/07 01:53:26;;;;;;;27.30;17.23;;;;;;;6.84;100.00;98989.66;5093203;28;20219;-79
2023/04/07 01:55:55;;;;;;;24.23;17.30;;;;;;;6.83;100.00;98982.69;5086639;28;20204;-78
2023/04/07 01:58:24;;;;;;;24.20;16.93;;;;;;;6.79;100.00;98983.78;5097068;28;20198;-79
2023/04/07 02:00:52;;;;;;;23.27;16.13;;;;;;;6.77;100.00;98983.03;5094169;28;20199;-79
2023/04/07 02:03:28;;;;;;;23.50;16.43;;;;;;;6.78;100.00;98979.44;5072449;28;20252;-79
2023/04/07 02:06:04;;;;;;;25.23;16.73;;;;;;;6.84;100.00;98980.91;5069345;28;20210;-79
2023/04/07 02:08:33;;;;;;;23.20;16.17;;;;;;;6.87;100.00;98976.34;5075939;28;20207;-79
2023/04/07 02:11:03;;;;;;;26.17;16.27;;;;;;;6.79;100.00;98975.03;5075166;28;20196;-79
2023/04/07 02:13:34;;;;;;;23.53;15.40;;;;;;;6.79;100.00;98972.41;5072058;28;20223;-79
2023/04/07 02:16:02;;;;;;;26.83;16.27;;;;;;;6.75;100.00;98963.78;5075216;28;20242;-79
2023/04/07 02:18:33;;;;;;;24.33;16.10;;;;;;;6.77;100.00;98963.75;5072268;28;20200;-79
2023/04/07 02:21:02;;;;;;;25.07;16.03;;;;;;;6.69;100.00;98965.91;5071104;28;20204;-79
2023/04/07 02:23:30;;;;;;;23.20;16.40;;;;;;;6.65;100.00;98970.47;5056886;28;20204;-79
2023/04/07 02:25:58;;;;;;;21.93;15.50;;;;;;;6.76;100.00;98965.53;5068346;28;20254;-79
2023/04/07 02:28:27;;;;;;;22.37;15.37;;;;;;;6.80;100.00;98968.84;5072087;28;20199;-80
2023/04/07 02:30:55;;;;;;;21.27;15.13;;;;;;;6.78;100.00;98962.81;5069648;28;20196;-79
2023/04/07 02:33:23;;;;;;;22.90;15.90;;;;;;;6.83;100.00;98964.25;5070422;28;20216;-79
2023/04/07 02:35:53;;;;;;;22.03;14.77;;;;;;;6.79;100.00;98968.00;5070526;28;20192;-79
2023/04/07 02:38:23;;;;;;;21.53;14.70;;;;;;;6.84;100.00;98965.97;5071794;28;20196;-80
2023/04/07 02:40:51;;;;;;;22.73;15.23;;;;;;;6.86;100.00;98961.50;5068951;28;20261;-80
2023/04/07 02:43:20;;;;;;;21.03;14.57;;;;;;;6.86;100.00;98958.00;5065646;28;20201;-79
2023/04/07 02:45:48;;;;;;;23.00;15.80;;;;;;;6.83;100.00;98959.00;5063486;28;20200;-80
2023/04/07 02:48:18;;;;;;;24.20;15.73;;;;;;;6.81;100.00;98952.13;5008630;28;20194;-79
2023/04/07 02:50:47;;;;;;;20.97;14.80;;;;;;;6.85;100.00;98957.16;5006197;28;20194;-80
2023/04/07 02:53:17;;;;;;;24.00;15.20;;;;;;;6.89;100.00;98952.56;5004496;28;20250;-79
2023/04/07 02:55:46;;;;;;;21.33;14.80;;;;;;;6.70;100.00;98952.66;5006941;28;20191;-80
2023/04/07 02:58:14;;;;;;;18.17;13.50;;;;;;;6.79;100.00;98951.34;5008045;28;20197;-79
2023/04/07 03:00:42;;;;;;;19.03;14.33;;;;;;;6.62;100.00;98954.84;5004698;28;20226;-79
2023/04/07 03:03:11;;;;;;;19.60;14.27;;;;;;;6.76;100.00;98951.53;5022461;28;20221;-79
2023/04/07 03:05:39;;;;;;;19.30;14.03;;;;;;;6.62;100.00;98960.09;5036597;28;20228;-80
2023/04/07 03:08:08;;;;;;;21.50;14.20;;;;;;;6.60;100.00;98954.06;5085000;28;20207;-80
2023/04/07 03:10:41;;;;;;;20.27;13.70;;;;;;;6.78;100.00;98952.28;5086327;28;20275;-79
2023/04/07 03:13:11;;;;;;;21.43;14.50;;;;;;;6.72;100.00;98948.19;5094431;28;20188;-80
2023/04/07 03:15:40;;;;;;;17.63;13.57;;;;;;;6.68;100.00;98941.38;5059491;28;20215;-80
2023/04/07 03:18:08;;;;;;;19.03;13.53;;;;;;;6.66;100.00;98943.25;5091510;28;20233;-80
2023/04/07 03:20:40;;;;;;;18.67;12.93;;;;;;;6.74;100.00;98940.19;5088589;28;20202;-80
2023/04/07 03:23:09;;;;;;;17.77;12.97;;;;;;;6.62;100.00;98936.41;5088062;28;20257;-80
2023/04/07 03:25:37;;;;;;;19.67;13.60;;;;;;;6.71;100.00;98940.38;5085601;28;20200;-80
2023/04/07 03:28:07;;;;;;;18.70;13.70;;;;;;;6.72;100.00;98950.81;5080830;28;20200;-80
2023/04/07 03:30:35;;;;;;;19.03;13.47;;;;;;;6.69;100.00;98950.13;5091187;28;20192;-80
2023/04/07 03:33:04;;;;;;;18.63;13.70;;;;;;;6.87;100.00;98942.13;5085369;28;20204;-79
2023/04/07 03:35:33;;;;;;;19.90;13.37;;;;;;;6.87;100.00;98942.13;5091098;28;20726;-80
2023/04/07 03:38:01;;;;;;;20.57;13.70;;;;;;;6.74;100.00;98938.41;5084290;28;20242;-80
2023/04/07 03:40:29;;;;;;;18.57;13.30;;;;;;;6.75;100.00;98928.72;5084335;28;20651;-80
2023/04/07 03:42:58;;;;;;;18.80;13.37;;;;;;;6.83;100.00;98937.09;5084229;28;20207;-80
2023/04/07 03:45:28;;;;;;;20.17;12.87;;;;;;;6.76;100.00;98926.06;5088435;28;20195;-80
2023/04/07 03:47:56;;;;;;;17.80;12.67;;;;;;;6.65;100.00;98938.88;5088297;28;20199;-80
2023/04/07 03:50:25;;;;;;;18.20;12.47;;;;;;;6.73;100.00;98931.44;5089960;28;20279;-81
2023/04/07 03:52:53;;;;;;;21.03;13.43;;;;;;;6.78;100.00;98936.50;5089717;28;20203;-80
2023/04/07 03:55:23;;;;;;;17.57;12.40;;;;;;;6.73;100.00;98941.13;5090228;28;20245;-79
2023/04/07 03:57:51;;;;;;;17.60;13.27;;;;;;;6.63;100.00;98934.63;5079493;28;20226;-79
2023/04/07 04:00:20;;;;;;;18.53;12.63;;;;;;;6.60;100.00;98941.78;5082106;28;20244;-80
2023/04/07 04:02:54;;;;;;;16.30;12.33;;;;;;;6.67;100.00;98934.41;5090584;28;20316;-80
2023/04/07 04:05:22;;;;;;;20.33;13.23;;;;;;;6.69;100.00;98942.22;5089533;28;20198;-80
2023/04/07 04:07:51;;;;;;;19.67;13.43;;;;;;;6.72;100.00;98942.91;5086427;28;20253;-81
2023/04/07 04:10:20;;;;;;;18.13;12.43;;;;;;;6.66;100.00;98939.75;5090462;28;20203;-80
2023/04/07 04:12:49;;;;;;;19.23;13.50;;;;;;;6.67;100.00;98939.69;5090505;28;20196;-80
2023/04/07 04:15:20;;;;;;;19.50;12.37;;;;;;;6.95;100.00;98943.47;5086761;28;20265;-80
2023/04/07 04:17:48;;;;;;;20.13;13.03;;;;;;;6.85;100.00;98933.47;5085431;28;20208;-80
2023/04/07 04:20:18;;;;;;;19.80;13.73;;;;;;;6.80;100.00;98935.47;5091915;28;20223;-80
2023/04/07 04:22:47;;;;;;;18.60;12.90;;;;;;;6.84;100.00;98941.41;5084331;28;20203;-80
2023/04/07 04:25:16;;;;;;;17.97;12.37;;;;;;;6.80;100.00;98940.75;5086367;28;20195;-80
2023/04/07 04:27:45;;;;;;;18.03;12.10;;;;;;;6.85;100.00;98932.59;5087070;28;20246;-80
2023/04/07 04:30:13;;;;;;;20.23;12.70;;;;;;;6.84;100.00;98939.63;5090013;28;20202;-80
2023/04/07 04:32:41;;;;;;;18.10;12.97;;;;;;;6.66;100.00;98931.84;5087579;28;20223;-80
2023/04/07 04:35:10;;;;;;;17.80;12.27;;;;;;;6.76;100.00;98938.38;5082099;28;20247;-80
2023/04/07 04:37:40;;;;;;;18.47;13.00;;;;;;;6.73;100.00;98943.75;5090076;28;20241;-79
2023/04/07 04:40:10;;;;;;;16.87;12.60;;;;;;;6.65;100.00;98938.88;5093135;28;20196;-80
2023/04/07 04:42:38;;;;;;;16.00;11.77;;;;;;;6.75;100.00;98936.63;5082005;28;20202;-81
2023/04/07 04:45:08;;;;;;;16.63;12.30;;;;;;;6.83;100.00;98937.09;5083035;28;20269;-81
2023/04/07 04:47:37;;;;;;;17.37;12.30;;;;;;;6.69;100.00;98926.44;5028523;28;20276;-80
2023/04/07 04:50:07;;;;;;;16.33;12.23;;;;;;;6.68;100.00;98938.75;5025310;28;20200;-80
2023/04/07 04:52:37;;;;;;;19.53;12.30;;;;;;;6.68;100.00;98930.00;5025390;28;20201;-80
2023/04/07 04:55:08;;;;;;;16.07;11.80;;;;;;;6.79;100.00;98949.56;5027697;28;20271;-80
2023/04/07 04:57:37;;;;;;;16.03;11.67;;;;;;;6.77;100.00;98948.81;4978707;28;20197;-80
2023/04/07 05:00:06;;;;;;;17.83;12.60;;;;;;;6.68;100.00;98944.00;5025336;28;20202;-80
2023/04/07 05:02:35;;;;;;;14.83;10.70;;;;;;;6.75;100.00;98945.38;5033436;28;20297;-80
2023/04/07 05:05:04;;;;;;;16.17;11.00;;;;;;;6.73;100.00;98946.41;4984285;28;20197;-80
2023/04/07 05:07:33;;;;;;;14.63;10.93;;;;;;;6.80;100.00;98946.00;4988166;28;20202;-80
2023/04/07 05:10:01;;;;;;;13.33;10.40;;;;;;;6.60;100.00;98961.97;4972536;28;20263;-81
2023/04/07 05:12:31;;;;;;;14.70;10.73;;;;;;;6.69;100.00;98953.59;5014735;28;20201;-80
2023/04/07 05:15:00;;;;;;;12.97;10.47;;;;;;;6.82;100.00;98959.06;5031460;28;20245;-81
2023/04/07 05:17:28;;;;;;;13.90;10.03;;;;;;;6.83;100.00;98952.88;5023349;28;20205;-80
2023/04/07 05:19:56;;;;;;;14.67;10.80;;;;;;;6.84;100.00;98951.94;5029559;28;20185;-80
2023/04/07 05:22:24;;;;;;;14.27;11.23;;;;;;;6.87;100.00;98954.44;5027610;28;20245;-80
2023/04/07 05:24:52;;;;;;;14.30;10.37;;;;;;;6.89;100.00;98955.22;5040685;28;20201;-80
2023/04/07 05:27:21;;;;;;;13.60;10.03;;;;;;;6.89;100.00;98958.69;5092534;28;20190;-80
2023/04/07 05:29:50;;;;;;;12.57;10.17;;;;;;;6.84;100.00;98957.22;5058584;28;20221;-81
2023/04/07 05:32:19;;;;;;;14.37;9.90;;;;;;;6.73;100.00;98954.28;5092020;28;20215;-80
2023/04/07 05:34:47;;;;;;;12.50;9.80;;;;;;;6.90;100.00;98951.63;5091913;28;20306;-80
2023/04/07 05:37:15;;;;;;;16.87;9.93;;;;;;;6.86;100.00;98948.31;5089068;28;20241;-80
2023/04/07 05:39:44;;;;;;;12.33;9.47;;;;;;;6.79;100.00;98953.97;5093460;28;20245;-81
2023/04/07 05:42:12;;;;;;;12.20;9.60;;;;;;;6.88;100.00;98948.25;5091928;28;20256;-81
2023/04/07 05:44:41;;;;;;;11.97;9.03;;;;;;;6.91;100.00;98955.13;5096268;28;20196;-80
2023/04/07 05:47:10;;;;;;;12.93;9.07;;;;;;;6.86;100.00;98950.09;5096089;28;20188;-80
2023/04/07 05:49:44;;;;;;;10.07;8.17;;;;;;;6.95;100.00;98946.13;5092049;28;20184;-80
2023/04/07 05:52:13;;;;;;;12.60;8.53;;;;;;;6.93;100.00;98951.47;5091078;28;20646;-80
2023/04/07 05:54:41;;;;;;;11.33;8.27;;;;;;;7.03;100.00;98954.47;5091023;28;20237;-80
2023/04/07 05:57:10;;;;;;;13.00;9.23;;;;;;;6.89;100.00;98957.84;5092845;28;20203;-80
2023/04/07 05:59:38;;;;;;;10.20;8.40;;;;;;;6.88;100.00;98951.72;5084420;28;20241;-80
2023/04/07 06:02:07;;;;;;;10.70;8.37;;;;;;;6.80;100.00;98948.63;5087574;28;20240;-79
2023/04/07 06:04:38;;;;;;;10.93;9.20;;;;;;;6.99;100.00;98958.19;5091988;28;20200;-79
2023/04/07 06:07:07;;;;;;;11.60;8.67;;;;;;;6.96;100.00;98950.47;5088876;28;20230;-80
2023/04/07 06:09:35;;;;;;;11.23;8.37;;;;;;;6.87;100.00;98951.81;5086016;28;20309;-79
2023/04/07 06:12:05;;;;;;;11.20;8.17;;;;;;;6.92;100.00;98949.75;5092460;28;20253;-80
2023/04/07 06:14:34;;;;;;;11.77;8.77;;;;;;;6.94;100.00;98955.78;5089553;28;20199;-80
2023/04/07 06:17:03;;;;;;;9.57;7.77;;;;;;;6.96;100.00;98958.38;5090228;28;20259;-80
2023/04/07 06:19:32;;;;;;;10.63;8.43;;;;;;;6.93;100.00;98958.50;5090866;28;20194;-80
2023/04/07 06:22:02;;;;;;;11.43;8.93;;;;;;;6.86;100.00;98958.00;5092643;28;20196;-80
2023/04/07 06:24:30;;;;;;;10.10;8.27;;;;;;;6.84;100.00;98955.44;5087267;28;20188;-80
2023/04/07 06:26:58;;;;;;;10.77;8.17;;;;;;;6.94;100.00;98962.84;5095360;28;20199;-80
2023/04/07 06:29:26;;;;;;;9.87;8.00;;;;;;;7.00;100.00;98954.63;5088146;28;20183;-79
2023/04/07 06:31:55;;;;;;;12.00;8.03;;;;;;;6.97;100.00;98955.66;5095197;28;20203;-80
2023/04/07 06:34:23;;;;;;;10.53;7.77;;;;;;;7.01;100.00;98958.97;5085698;28;20715;-80
2023/04/07 06:36:51;;;;;;;11.10;8.70;;;;;;;7.01;100.00;98957.19;5092335;28;20211;-80
2023/04/07 06:39:21;;;;;;;9.77;8.00;;;;;;;6.90;100.00;98962.16;5086622;28;20211;-80
2023/04/07 06:41:50;;;;;;;9.47;7.77;;;;;;;6.92;100.00;98962.09;5089195;28;20203;-80
2023/04/07 06:44:18;;;;;;;10.50;7.90;;;;;;;6.91;100.00;98963.88;5089563;28;20199;-80
2023/04/07 06:46:49;;;;;;;12.00;8.33;;;;;;;7.02;100.00;98966.78;5028302;28;20244;-80
2023/04/07 06:49:17;;;;;;;10.03;7.70;;;;;;;7.05;100.00;98961.38;5029369;28;20198;-80
2023/04/07 06:51:46;;;;;;;12.37;9.13;;;;;;;7.05;100.00;98964.00;5030256;28;20213;-80
2023/04/07 06:54:14;;;;;;;10.27;8.40;;;;;;;7.01;100.00;98964.22;5023523;28;20283;-80
2023/04/07 06:56:44;;;;;;;12.90;9.97;;;;;;;7.07;100.00;98971.81;5025196;28;20221;-80
2023/04/07 06:59:12;;;;;;;10.83;8.43;;;;;;;7.05;100.00;98968.44;5032862;28;20205;-79
2023/04/07 07:01:42;;;;;;;10.50;8.33;;;;;;;6.99;100.00;98968.75;5023978;28;20225;-80
2023/04/07 07:04:10;;;;;;;11.50;8.70;;;;;;;7.02;100.00;98972.06;5033866;28;20200;-80
2023/04/07 07:06:39;;;;;;;10.93;8.47;;;;;;;7.08;100.00;98977.00;5091218;28;20202;-80
2023/04/07 07:09:08;;;;;;;11.77;7.93;;;;;;;7.20;100.00;98970.22;5094560;28;20200;-79
2023/04/07 07:11:37;;;;;;;10.47;8.33;;;;;;;7.20;100.00;98970.22;5094682;28;20192;-80
2023/04/07 07:14:07;;;;;;;12.20;8.07;;;;;;;7.17;100.00;98975.66;5094563;28;20195;-80
2023/04/07 07:16:36;;;;;;;11.37;8.20;;;;;;;7.22;100.00;98983.31;5094368;28;20221;-80
2023/04/07 07:19:04;;;;;;;12.40;8.73;;;;;;;7.20;100.00;98983.41;5087480;28;20199;-80
2023/04/07 07:21:32;;;;;;;12.13;8.73;;;;;;;7.15;100.00;98981.03;5089742;28;20655;-80
2023/04/07 07:24:01;;;;;;;10.87;8.10;;;;;;;7.19;100.00;98984.34;5094282;28;20677;-80
2023/04/07 07:26:29;;;;;;;10.70;7.97;;;;;;;7.28;100.00;98985.63;5081700;28;20196;-80
2023/04/07 07:28:59;;;;;;;10.70;8.23;;;;;;;7.24;100.00;98990.22;5088743;28;20655;-80
2023/04/07 07:31:29;;;;;;;10.37;8.03;;;;;;;7.31;100.00;98996.84;5087636;28;20238;-80
2023/04/07 07:33:58;;;;;;;10.37;8.33;;;;;;;7.34;100.00;98993.22;5084113;28;20253;-80
2023/04/07 07:36:26;;;;;;;9.67;8.10;;;;;;;7.43;100.00;98988.31;5086860;28;20212;-80
2023/04/07 07:38:55;;;;;;;11.73;9.30;;;;;;;7.43;100.00;98996.22;5086803;28;20221;-80
2023/04/07 07:41:26;;;;;;;10.93;8.73;;;;;;;7.29;100.00;98990.81;5087696;28;20195;-80
2023/04/07 07:43:54;;;;;;;9.20;8.10;;;;;;;7.49;100.00;98997.66;5089840;28;20230;-80
2023/04/07 07:46:26;;;;;;;9.63;7.70;;;;;;;7.63;100.00;98994.28;5090700;28;20646;-80
2023/04/07 07:48:55;;;;;;;11.77;8.17;;;;;;;7.42;100.00;98999.75;5087237;28;20200;-80
2023/04/07 07:51:24;;;;;;;10.50;7.93;;;;;;;7.53;100.00;98999.19;5084829;28;20191;-81
2023/04/07 07:53:52;;;;;;;9.53;7.07;;;;;;;7.50;100.00;98999.34;5091140;28;20191;-80
2023/04/07 07:56:21;;;;;;;9.93;7.93;;;;;;;7.49;100.00;99000.28;5084934;28;20243;-81
2023/04/07 07:58:49;;;;;;;10.90;8.63;;;;;;;7.37;100.00;99004.44;5085979;28;20257;-80
2023/04/07 08:01:18;;;;;;;9.80;7.97;;;;;;;7.57;100.00;99008.63;5088087;28;20424;-81
2023/04/07 08:03:47;;;;;;;9.40;7.67;;;;;;;7.38;100.00;98998.22;5085896;28;20207;-80
2023/04/07 08:06:17;;;;;;;10.90;8.23;;;;;;;7.51;100.00;99016.84;5093761;28;20222;-80
2023/04/07 08:08:46;;;;;;;12.50;8.27;;;;;;;7.58;100.00;99010.31;5090545;28;20192;-80
2023/04/07 08:11:14;;;;;;;10.17;7.83;;;;;;;7.51;100.00;99016.00;5083275;28;20196;-80
2023/04/07 08:13:45;;;;;;;9.27;7.47;;;;;;;7.62;100.00;99018.91;5080303;28;20225;-80
2023/04/07 08:16:14;;;;;;;10.63;8.60;;;;;;;7.61;100.00;99017.22;5087432;28;20298;-80
2023/04/07 08:18:42;;;;;;;10.47;8.90;;;;;;;7.56;100.00;99025.38;5082889;28;20267;-80
2023/04/07 08:21:11;;;;;;;10.17;8.33;;;;;;;7.61;100.00;99028.59;5093472;28;20245;-80
2023/04/07 08:23:41;;;;;;;11.37;8.53;;;;;;;7.49;100.00;99036.31;5088597;28;20204;-80
2023/04/07 08:26:10;;;;;;;9.50;8.03;;;;;;;7.55;100.00;99030.75;5081444;28;20199;-80
2023/04/07 08:28:38;;;;;;;10.57;7.60;;;;;;;7.55;100.00;99031.59;5093014;28;20241;-80
2023/04/07 08:31:07;;;;;;;10.20;7.87;;;;;;;7.67;100.00;99036.19;5087406;28;20621;-80
2023/04/07 08:33:36;;;;;;;11.67;8.87;;;;;;;7.58;100.00;99041.09;5079942;28;20205;-80
2023/04/07 08:36:05;;;;;;;11.27;8.80;;;;;;;7.69;100.00;99039.59;5081138;28;20248;-80
2023/04/07 08:38:33;;;;;;;12.27;8.43;;;;;;;7.54;100.00;99036.94;5087396;28;20200;-80
2023/04/07 08:41:04;;;;;;;13.37;8.23;;;;;;;7.77;100.00;99036.53;5080734;28;20265;-80
2023/04/07 08:43:35;;;;;;;10.63;7.87;;;;;;;7.69;100.00;99039.59;5084642;28;20249;-80
2023/04/07 08:46:06;;;;;;;11.20;8.53;;;;;;;7.58;100.00;99034.06;5087299;28;20233;-80
2023/04/07 08:48:36;;;;;;;12.20;8.30;;;;;;;7.64;100.00;99046.91;5089066;28;20196;-81
2023/04/07 08:51:07;;;;;;;11.57;8.77;;;;;;;7.63;100.00;99045.22;5084727;28;20199;-80
2023/04/07 08:53:42;;;;;;;10.33;8.23;;;;;;;7.65;100.00;99045.13;5085960;28;20195;-80
2023/04/07 08:56:14;;;;;;;11.10;8.33;;;;;;;7.61;100.00;99049.69;5082099;28;20252;-81
2023/04/07 08:58:43;;;;;;;10.43;7.87;;;;;;;7.79;100.00;99045.22;5085798;28;20200;-81
2023/04/07 09:01:14;;;;;;;10.50;8.33;;;;;;;7.74;100.00;99047.25;5084713;28;20304;-81
2023/04/07 09:03:45;;;;;;;12.00;8.73;;;;;;;7.63;100.00;99049.63;5079922;28;20203;-81
2023/04/07 09:06:16;;;;;;;11.33;9.57;;;;;;;7.68;100.00;99050.22;5085509;28;20207;-81
2023/04/07 09:08:44;;;;;;;17.23;13.80;;;;;;;7.71;100.00;99042.13;5086805;28;20207;-81
2023/04/07 09:11:14;;;;;;;24.63;18.57;;;;;;;7.78;100.00;99055.84;5085923;28;20195;-81
2023/04/07 09:13:42;;;;;;;19.33;16.37;;;;;;;7.84;100.00;99055.53;5101488;28;20194;-81
2023/04/07 09:16:12;;;;;;;13.07;10.00;;;;;;;7.89;100.00;99056.97;5092926;28;20199;-81
2023/04/07 09:18:41;;;;;;;11.93;8.27;;;;;;;7.79;100.00;99065.44;5085717;28;20222;-81
2023/04/07 09:21:10;;;;;;;12.47;8.70;;;;;;;7.73;100.00;99056.97;5093016;28;20206;-80
2023/04/07 09:23:42;;;;;;;11.83;8.53;;;;;;;7.79;100.00;99057.53;5092885;28;20274;-80
2023/04/07 09:26:26;;;;;;;10.87;8.47;;;;;;;7.94;100.00;99059.34;5089375;28;20199;-80
2023/04/07 09:28:55;;;;;;;11.50;8.07;;;;;;;7.94;100.00;99059.34;5085086;28;20214;-81
2023/04/07 09:31:43;;;;;;;11.70;8.80;;;;;;;8.01;100.00;99058.94;5092176;28;20195;-81
2023/04/07 09:34:24;;;;;;;9.80;8.60;;;;;;;7.99;100.00;99067.84;5088062;28;20243;-80
2023/04/07 09:36:53;;;;;;;12.73;9.00;;;;;;;8.04;100.00;99065.81;5086548;28;20227;-80
2023/04/07 09:39:23;;;;;;;12.27;8.67;;;;;;;8.04;100.00;99065.81;5092492;28;20188;-80
2023/04/07 09:41:53;;;;;;;13.50;8.87;;;;;;;8.16;100.00;99062.50;5089519;28;20195;-81
2023/04/07 09:44:22;;;;;;;12.57;9.27;;;;;;;8.12;100.00;99060.13;5089249;28;20655;-81
2023/04/07 09:46:52;;;;;;;13.47;9.33;;;;;;;8.19;100.00;99066.75;5087278;28;20199;-81
2023/04/07 09:52:06;;;;;;;13.30;10.23;;;;;;;8.10;100.00;99077.81;5092008;28;20207;-80
2023/04/07 09:54:38;;;;;;;10.07;8.13;;;;;;;8.10;100.00;99075.16;5090625;28;20223;-80
2023/04/07 09:57:09;;;;;;;12.50;8.80;;;;;;;8.04;100.00;99071.09;5092175;28;20215;-80
2023/04/07 09:59:39;;;;;;;9.97;8.50;;;;;;;8.12;100.00;99068.91;5087963;28;20264;-81
2023/04/07 10:02:08;;;;;;;10.40;8.70;;;;;;;8.11;100.00;99072.47;5090469;28;20215;-80
2023/04/07 10:04:37;;;;;;;9.80;7.57;;;;;;;8.27;100.00;99067.19;5088519;28;20198;-81
2023/04/07 10:07:06;;;;;;;11.10;8.27;;;;;;;8.16;100.00;99067.78;5008196;28;20662;-80
2023/04/07 10:09:35;;;;;;;10.43;8.37;;;;;;;8.29;100.00;99070.56;5008486;28;20230;-80
2023/04/07 10:12:04;;;;;;;10.37;8.07;;;;;;;8.17;100.00;99073.91;5013571;28;20198;-81
2023/04/07 10:14:35;;;;;;;9.97;7.97;;;;;;;8.28;100.00;99075.00;5013505;28;20248;-81
2023/04/07 10:17:08;;;;;;;9.40;7.77;;;;;;;8.40;100.00;99070.88;5011543;28;20213;-81
2023/04/07 10:19:37;;;;;;;10.03;8.17;;;;;;;8.36;100.00;99071.97;5009385;28;20265;-80
2023/04/07 10:22:09;;;;;;;11.13;8.53;;;;;;;8.28;100.00;99082.06;5009566;28;20190;-81
2023/04/07 10:24:47;;;;;;;9.10;7.43;;;;;;;8.28;100.00;99080.28;5024283;28;20223;-81
2023/04/07 10:27:19;;;;;;;10.77;8.03;;;;;;;8.33;100.00;99080.88;5095659;28;20196;-80
2023/04/07 10:29:51;;;;;;;10.97;7.73;;;;;;;8.42;100.00;99076.06;5087839;28;20226;-81
2023/04/07 10:32:20;;;;;;;11.47;8.13;;;;;;;8.49;100.00;99080.91;5088684;28;20218;-80
2023/04/07 10:35:01;;;;;;;9.70;8.13;;;;;;;8.48;100.00;99086.25;5084945;28;20203;-81
2023/04/07 10:37:30;;;;;;;9.63;7.30;;;;;;;8.50;100.00;99082.63;5086450;28;20216;-80
2023/04/07 10:40:30;;;;;;;10.90;8.37;;;;;;;8.65;100.00;99082.66;5092397;28;20340;-80
2023/04/07 10:43:00;;;;;;;9.53;7.40;;;;;;;8.74;100.00;99084.78;5094826;28;20231;-80
2023/04/07 10:45:55;;;;;;;8.70;7.60;;;;;;;8.68;100.00;99083.31;5090909;28;20203;-81
2023/04/07 10:48:23;;;;;;;9.90;8.23;;;;;;;8.82;100.00;99095.75;5093256;28;20689;-81
2023/04/07 10:51:18;;;;;;;10.67;8.10;;;;;;;8.75;100.00;99089.97;5093704;28;20208;-81
2023/04/07 10:54:19;;;;;;;9.43;7.73;;;;;;;8.77;100.00;99087.22;5090548;28;20210;-81
2023/04/07 10:57:11;;;;;;;12.57;8.57;;;;;;;8.83;100.00;99087.75;5090439;28;20231;-81
2023/04/07 10:59:45;;;;;;;10.43;7.37;;;;;;;8.81;100.00;99094.06;5085302;28;20204;-81
2023/04/07 11:02:35;;;;;;;10.10;7.87;;;;;;;8.93;100.00;99090.69;5094682;28;20238;-81
2023/04/07 11:05:05;;;;;;;9.30;7.37;;;;;;;8.80;100.00;99098.50;5094134;28;20294;-80
2023/04/07 11:07:53;;;;;;;9.80;7.93;;;;;;;8.82;100.00;99093.97;5090947;28;20195;-81
2023/04/07 11:10:22;;;;;;;10.57;8.43;;;;;;;9.02;100.00;99098.09;5091387;28;20192;-81
2023/04/07 11:13:06;;;;;;;9.50;7.67;;;;;;;8.89;100.00;99094.47;5081905;28;20265;-80
2023/04/07 11:15:36;;;;;;;9.30;7.67;;;;;;;9.02;100.00;99094.59;5090241;28;20713;-81
2023/04/07 11:18:16;;;;;;;9.27;7.53;;;;;;;8.98;100.00;99098.38;5012340;28;20349;-81
2023/04/07 11:20:49;;;;;;;11.23;8.10;;;;;;;9.01;100.00;99096.38;5001249;28;20317;-81
2023/04/07 11:23:19;;;;;;;8.30;7.23;;;;;;;9.17;100.00;99096.34;4974487;28;20207;-81
2023/04/07 11:25:49;;;;;;;10.27;7.97;;;;;;;9.05;100.00;99099.69;4937994;28;20195;-81
2023/04/07 11:28:19;;;;;;;9.17;7.57;;;;;;;9.14;100.00;99102.63;4973273;28;20203;-80
2023/04/07 11:30:58;;;;;;;8.83;7.30;;;;;;;9.25;100.00;99101.16;4973205;28;20202;-81
2023/04/07 11:33:33;;;;;;;7.80;6.90;;;;;;;9.09;100.00;99110.00;4972941;28;20198;-81
2023/04/07 11:36:03;;;;;;;8.40;7.00;;;;;;;9.19;100.00;99102.38;5000654;28;20196;-81
2023/04/07 11:38:38;;;;;;;7.90;7.10;;;;;;;9.18;100.00;99109.47;5048768;28;20255;-80
2023/04/07 11:41:12;;;;;;;9.67;7.73;;;;;;;9.05;100.00;99113.75;5065489;28;20249;-81